createdAt,value
2019-04-22T00:02:18.886Z,100866.92
2019-04-22T00:05:01.117Z,100872.52
2019-04-22T00:07:48.311Z,100867.55
2019-04-22T00:10:26.135Z,100860.19
2019-04-22T00:13:11.301Z,100857.85
2019-04-22T00:15:20.211Z,100856.42
2019-04-22T00:18:07.395Z,100856.92
2019-04-22T00:20:35.367Z,100853.43
2019-04-22T00:23:09.750Z,100852.27
2019-04-22T00:25:49.429Z,100844.86
2019-04-22T00:28:14.691Z,100842.62
2019-04-22T00:30:47.163Z,100844.85
2019-04-22T00:33:26.833Z,100842.71
2019-04-22T00:36:01.163Z,100836.02
2019-04-22T00:38:55.834Z,100834.72
2019-04-22T00:41:05.743Z,100832.75
2019-04-22T00:43:45.822Z,100826.25
2019-04-22T00:46:15.580Z,100826.86
2019-04-22T00:48:57.960Z,100825.20
2019-04-22T00:51:22.569Z,100824.80
2019-04-22T00:53:49.936Z,100815.47
2019-04-22T00:56:22.025Z,100814.56
2019-04-22T00:58:50.285Z,100821.16
2019-04-22T01:01:31.962Z,100817.84
2019-04-22T01:06:33.335Z,100817.78
2019-04-22T01:09:10.727Z,100815.63
2019-04-22T01:11:40.129Z,100814.83
2019-04-22T01:14:16.107Z,100814.26
2019-04-22T01:16:52.142Z,100803.73
2019-04-22T01:19:23.421Z,100803.27
2019-04-22T01:24:27.738Z,100797.28
2019-04-22T01:26:58.175Z,100792.53
2019-04-22T01:29:28.034Z,100794.57
2019-04-22T01:31:49.092Z,100792.56
2019-04-22T01:34:37.512Z,100787.05
2019-04-22T01:37:07.642Z,100786.24
2019-04-22T01:39:50.336Z,100781.12
2019-04-22T01:42:24.440Z,100770.00
2019-04-22T01:44:56.746Z,100772.14
2019-04-22T01:47:36.501Z,100775.77
2019-04-22T01:50:10.213Z,100770.33
2019-04-22T01:52:38.276Z,100769.71
2019-04-22T01:55:17.759Z,100765.30
2019-04-22T01:57:44.467Z,100771.58
2019-04-22T02:00:04.991Z,100760.67
2019-04-22T02:02:49.187Z,100763.55
2019-04-22T02:05:24.876Z,100763.20
2019-04-22T02:07:59.473Z,100757.73
2019-04-22T02:10:36.018Z,100756.73
2019-04-22T02:13:00.135Z,100749.16
2019-04-22T02:15:45.890Z,100747.02
2019-04-22T02:18:17.830Z,100746.94
2019-04-22T02:20:43.262Z,100746.32
2019-04-22T02:23:47.288Z,100738.28
2019-04-22T02:26:07.535Z,100732.09
2019-04-22T02:44:11.517Z,100740.45
2019-04-22T02:49:18.730Z,100733.51
2019-04-22T02:51:43.199Z,100730.02
2019-04-22T02:56:56.450Z,100723.48
2019-04-22T02:59:39.860Z,100717.68
2019-04-22T03:01:54.008Z,100713.41
2019-04-22T03:04:37.259Z,100713.41
2019-04-22T03:06:56.138Z,100715.47
2019-04-22T03:09:52.605Z,100713.33
2019-04-22T03:12:25.136Z,100713.82
2019-04-22T03:14:55.122Z,100705.75
2019-04-22T03:17:20.642Z,100710.91
2019-04-22T03:22:20.919Z,100703.79
2019-04-22T03:25:25.792Z,100694.70
2019-04-22T03:27:21.928Z,100694.02
2019-04-22T03:33:06.548Z,100690.55
2019-04-22T03:37:53.207Z,100688.84
2019-04-22T03:40:30.779Z,100686.55
2019-04-22T03:53:09.872Z,100686.95
2019-04-22T03:55:49.040Z,100686.84
2019-04-22T03:58:28.368Z,100689.70
2019-04-22T04:00:47.857Z,100692.39
2019-04-22T04:03:36.326Z,100688.56
2019-04-22T04:05:54.118Z,100684.41
2019-04-22T04:13:33.785Z,100679.04
2019-04-22T04:16:03.144Z,100677.32
2019-04-22T04:18:46.720Z,100669.80
2019-04-22T04:21:26.894Z,100673.94
2019-04-22T04:24:03.374Z,100675.27
2019-04-22T04:26:27.372Z,100668.26
2019-04-22T04:31:32.767Z,100667.31
2019-04-22T04:34:06.475Z,100661.69
2019-04-22T04:36:34.742Z,100657.51
2019-04-22T04:41:42.036Z,100661.41
2019-04-22T04:44:35.143Z,100662.59
2019-04-22T04:46:51.567Z,100662.42
2019-04-22T04:49:24.035Z,100662.09
2019-04-22T04:51:50.636Z,100658.28
2019-04-22T04:54:31.756Z,100660.45
2019-04-22T04:56:56.753Z,100661.09
2019-04-22T04:59:43.051Z,100662.44
2019-04-22T05:02:04.411Z,100662.10
2019-04-22T05:04:51.217Z,100658.73
2019-04-22T05:09:34.031Z,100662.37
2019-04-22T05:14:46.444Z,100656.66
2019-04-22T05:17:18.246Z,100649.94
2019-04-22T05:19:47.721Z,100647.23
2019-04-22T05:22:24.418Z,100652.97
2019-04-22T05:24:54.226Z,100649.41
2019-04-22T05:27:29.878Z,100650.63
2019-04-22T05:30:23.385Z,100647.05
2019-04-22T05:35:10.536Z,100645.40
2019-04-22T05:40:19.311Z,100639.91
2019-04-22T05:42:46.162Z,100638.48
2019-04-22T05:45:16.612Z,100638.33
2019-04-22T05:47:52.357Z,100639.31
2019-04-22T05:50:23.979Z,100630.79
2019-04-22T05:53:05.194Z,100631.57
2019-04-22T05:55:39.688Z,100629.17
2019-04-22T05:58:02.778Z,100626.24
2019-04-22T06:01:05.647Z,100623.24
2019-04-22T06:03:08.574Z,100624.98
2019-04-22T06:05:47.659Z,100624.66
2019-04-22T06:08:29.545Z,100625.73
2019-04-22T06:11:04.149Z,100626.66
2019-04-22T06:13:30.421Z,100627.89
2019-04-22T06:16:04.731Z,100632.31
2019-04-22T06:18:44.854Z,100633.42
2019-04-22T06:21:11.488Z,100623.07
2019-04-22T06:23:46.389Z,100614.96
2019-04-22T06:26:35.736Z,100618.23
2019-04-22T06:31:26.746Z,100617.22
2019-04-22T06:36:30.960Z,100613.17
2019-04-22T06:39:05.256Z,100616.04
2019-04-22T06:41:36.942Z,100614.11
2019-04-22T06:44:11.090Z,100621.86
2019-04-22T06:46:43.395Z,100622.84
2019-04-22T06:49:18.720Z,100623.14
2019-04-22T06:51:45.078Z,100620.98
2019-04-22T06:54:26.190Z,100615.31
2019-04-22T06:56:57.227Z,100616.83
2019-04-22T06:59:28.296Z,100622.78
2019-04-22T07:02:06.438Z,100615.52
2019-04-22T07:04:43.018Z,100621.02
2019-04-22T07:07:08.035Z,100616.29
2019-04-22T07:09:41.405Z,100619.19
2019-04-22T07:12:11.648Z,100621.38
2019-04-22T07:14:47.273Z,100621.26
2019-04-22T07:17:18.978Z,100618.00
2019-04-22T07:20:04.297Z,100622.58
2019-04-22T07:22:21.557Z,100618.44
2019-04-22T07:27:30.681Z,100620.72
2019-04-22T07:32:53.352Z,100606.89
2019-04-22T07:35:08.784Z,100601.84
2019-04-22T07:40:13.463Z,100598.94
2019-04-22T07:42:45.528Z,100594.77
2019-04-22T07:45:21.276Z,100603.21
2019-04-22T07:47:52.139Z,100601.10
2019-04-22T07:50:37.841Z,100602.77
2019-04-22T07:52:51.360Z,100605.63
2019-04-22T07:55:32.706Z,100600.73
2019-04-22T07:58:05.251Z,100599.30
2019-04-22T08:00:38.658Z,100592.89
2019-04-22T08:03:11.862Z,100599.89
2019-04-22T08:05:52.131Z,100599.48
2019-04-22T08:08:25.789Z,100599.50
2019-04-22T08:13:25.348Z,100592.92
2019-04-22T08:15:58.206Z,100588.60
2019-04-22T08:18:45.622Z,100588.25
2019-04-22T08:21:06.363Z,100587.79
2019-04-22T08:23:37.938Z,100576.84
2019-04-22T08:26:05.385Z,100577.70
2019-04-22T08:28:47.854Z,100580.94
2019-04-22T08:31:18.772Z,100567.54
2019-04-22T08:33:49.629Z,100568.20
2019-04-22T08:36:40.805Z,100563.53
2019-04-22T08:39:23.144Z,100567.47
2019-04-22T08:41:57.316Z,100562.78
2019-04-22T08:45:04.161Z,100566.47
2019-04-22T08:50:18.488Z,100556.92
2019-04-22T08:52:58.766Z,100555.02
2019-04-22T09:03:23.984Z,100543.33
2019-04-22T09:06:22.446Z,100538.42
2019-04-22T09:08:35.716Z,100537.56
2019-04-22T09:11:08.741Z,100530.91
2019-04-22T09:13:45.297Z,100535.17
2019-04-22T09:16:16.647Z,100530.05
2019-04-22T09:21:21.096Z,100518.45
2019-04-22T09:23:54.021Z,100519.33
2019-04-22T09:26:23.939Z,100519.28
2019-04-22T09:29:03.258Z,100516.81
2019-04-22T09:31:24.303Z,100511.95
2019-04-22T09:33:59.360Z,100504.30
2019-04-22T09:36:34.017Z,100508.30
2019-04-22T09:39:12.708Z,100502.89
2019-04-22T09:41:42.904Z,100504.06
2019-04-22T09:44:08.144Z,100501.73
2019-04-22T09:46:47.074Z,100495.47
2019-04-22T09:49:28.425Z,100491.58
2019-04-22T09:51:56.985Z,100489.86
2019-04-22T09:54:29.653Z,100478.16
2019-04-22T09:56:55.337Z,100479.22
2019-04-22T09:59:32.652Z,100473.89
2019-04-22T10:02:19.335Z,100468.54
2019-04-22T10:04:40.175Z,100464.61
2019-04-22T10:07:16.487Z,100458.09
2019-04-22T10:10:01.541Z,100452.07
2019-04-22T10:12:25.058Z,100448.56
2019-04-22T10:17:25.758Z,100436.27
2019-04-22T10:19:59.605Z,100438.20
2019-04-22T10:22:39.354Z,100437.81
2019-04-22T10:25:11.904Z,100434.03
2019-04-22T10:27:39.853Z,100432.33
2019-04-22T10:30:08.947Z,100428.20
2019-04-22T10:32:46.220Z,100426.00
2019-04-22T10:35:14.416Z,100417.47
2019-04-22T10:37:42.717Z,100404.70
2019-04-22T10:40:25.739Z,100416.47
2019-04-22T10:42:57.237Z,100407.02
2019-04-22T10:45:28.515Z,100398.57
2019-04-22T10:48:01.671Z,100396.37
2019-04-22T10:50:46.411Z,100390.03
2019-04-22T10:53:19.926Z,100393.98
2019-04-22T10:55:51.950Z,100394.20
2019-04-22T10:58:24.685Z,100395.32
2019-04-22T11:00:57.978Z,100380.14
2019-04-22T11:03:30.956Z,100380.23
2019-04-22T11:06:03.322Z,100366.95
2019-04-22T11:08:45.808Z,100359.88
2019-04-22T11:11:21.545Z,100357.89
2019-04-22T11:13:41.877Z,100359.64
2019-04-22T11:16:13.865Z,100350.20
2019-04-22T11:18:45.499Z,100352.00
2019-04-22T11:21:17.934Z,100348.78
2019-04-22T11:23:52.488Z,100335.45
2019-04-22T11:26:25.930Z,100333.38
2019-04-22T11:28:57.167Z,100320.97
2019-04-22T11:31:28.499Z,100328.93
2019-04-22T11:34:00.759Z,100323.81
2019-04-22T11:36:32.628Z,100323.56
2019-04-22T11:39:07.826Z,100315.86
2019-04-22T11:41:38.002Z,100316.31
2019-04-22T11:44:09.583Z,100317.23
2019-04-22T11:46:41.152Z,100307.02
2019-04-22T11:49:12.421Z,100304.04
2019-04-22T11:51:43.668Z,100301.59
2019-04-22T11:54:14.962Z,100295.95
2019-04-22T11:56:47.362Z,100290.81
2019-04-22T11:59:18.805Z,100293.59
2019-04-22T12:01:51.012Z,100284.48
2019-04-22T12:04:22.519Z,100288.88
2019-04-22T12:06:54.052Z,100289.40
2019-04-22T12:09:25.757Z,100282.02
2019-04-22T12:11:59.977Z,100273.08
2019-04-22T12:14:31.905Z,100283.69
2019-04-22T12:17:03.602Z,100277.63
2019-04-22T12:19:35.246Z,100267.20
2019-04-22T12:22:07.174Z,100276.47
2019-04-22T12:24:40.558Z,100265.91
2019-04-22T12:27:12.315Z,100278.83
2019-04-22T12:29:44.797Z,100262.18
2019-04-22T12:32:16.146Z,100257.07
2019-04-22T12:34:53.388Z,100262.78
2019-04-22T12:37:31.588Z,100247.21
2019-04-22T12:39:58.278Z,100238.27
2019-04-22T12:42:31.466Z,100232.55
2019-04-22T12:45:04.012Z,100224.08
2019-04-22T12:47:35.874Z,100229.84
2019-04-22T12:50:18.665Z,100228.73
2019-04-22T12:52:50.468Z,100224.63
2019-04-22T12:55:17.573Z,100215.37
2019-04-22T12:57:52.035Z,100215.07
2019-04-22T13:00:24.714Z,100215.02
2019-04-22T13:02:58.914Z,100205.48
2019-04-22T13:05:29.264Z,100190.02
2019-04-22T13:08:01.899Z,100188.66
2019-04-22T13:10:41.691Z,100188.39
2019-04-22T13:13:07.098Z,100186.77
2019-04-22T13:15:39.233Z,100185.61
2019-04-22T13:18:19.310Z,100181.88
2019-04-22T13:20:44.456Z,100177.80
2019-04-22T13:23:15.879Z,100184.03
2019-04-22T13:25:47.317Z,100177.50
2019-04-22T13:28:19.026Z,100169.63
2019-04-22T13:30:50.639Z,100169.31
2019-04-22T13:33:23.181Z,100162.50
2019-04-22T13:35:54.671Z,100155.97
2019-04-22T13:38:27.036Z,100156.26
2019-04-22T13:41:10.889Z,100165.78
2019-04-22T13:43:31.294Z,100160.84
2019-04-22T13:46:03.825Z,100147.22
2019-04-22T13:48:59.395Z,100144.76
2019-04-22T13:51:40.857Z,100152.67
2019-04-22T13:54:42.386Z,100147.52
2019-04-22T13:56:40.284Z,100147.27
2019-04-22T13:58:58.500Z,100128.76
2019-04-22T14:01:22.994Z,100128.44
2019-04-22T14:04:07.059Z,100135.28
2019-04-22T14:06:38.833Z,100136.09
2019-04-22T14:09:11.575Z,100123.28
2019-04-22T14:11:49.879Z,100129.55
2019-04-22T14:14:15.786Z,100122.21
2019-04-22T14:16:47.051Z,100125.20
2019-04-22T14:19:18.446Z,100091.40
2019-04-22T14:21:49.812Z,100107.20
2019-04-22T14:24:21.597Z,100115.63
2019-04-22T14:27:08.815Z,100097.14
2019-04-22T14:29:26.146Z,100101.22
2019-04-22T14:32:06.942Z,100100.43
2019-04-22T14:34:30.352Z,100093.89
2019-04-22T14:37:01.583Z,100095.78
2019-04-22T14:39:33.729Z,100081.36
2019-04-22T14:42:21.697Z,100079.17
2019-04-22T14:47:34.820Z,100070.70
2019-04-22T14:50:05.240Z,100067.45
2019-04-22T14:52:39.554Z,100069.08
2019-04-22T14:55:02.913Z,100060.63
2019-04-22T14:57:23.351Z,100054.11
2019-04-22T14:59:55.807Z,100050.58
2019-04-22T15:02:27.920Z,100054.38
2019-04-22T15:05:00.561Z,100040.75
2019-04-22T15:07:33.016Z,100044.85
2019-04-22T15:10:08.257Z,100052.45
2019-04-22T15:12:46.041Z,100042.58
2019-04-22T15:15:31.540Z,100042.30
2019-04-22T15:18:19.853Z,100042.30
2019-04-22T15:21:00.755Z,100037.45
2019-04-22T15:23:32.958Z,100015.31
2019-04-22T15:26:04.646Z,100041.23
2019-04-22T15:28:37.341Z,100032.23
2019-04-22T15:31:09.155Z,100025.63
2019-04-22T15:33:41.670Z,100022.67
2019-04-22T15:36:14.174Z,100021.80
2019-04-22T15:38:47.075Z,100015.95
2019-04-22T15:41:18.776Z,100015.63
2019-04-22T15:43:57.453Z,100001.94
2019-04-22T15:46:29.832Z,100013.27
2019-04-22T15:49:11.855Z,100020.63
2019-04-22T15:51:44.752Z,100017.49
2019-04-22T15:54:19.294Z,100023.20
2019-04-22T15:56:50.848Z,100016.33
2019-04-22T15:59:41.625Z,100013.80
2019-04-22T16:01:58.649Z,100012.67
2019-04-22T16:04:28.547Z,100014.92
2019-04-22T16:07:01.213Z,100007.42
2019-04-22T16:09:33.271Z,100002.20
2019-04-22T16:12:16.306Z,100003.34
2019-04-22T16:14:43.831Z,100011.24
2019-04-22T16:17:10.614Z,99998.25
2019-04-22T16:19:43.264Z,100000.72
2019-04-22T16:22:18.746Z,100001.17
2019-04-22T16:25:09.441Z,99996.94
2019-04-22T16:27:42.637Z,99999.08
2019-04-22T16:30:15.075Z,99981.38
2019-04-22T16:32:47.567Z,99990.12
2019-04-22T16:35:18.897Z,99987.67
2019-04-22T16:37:50.690Z,99998.01
2019-04-22T16:40:22.848Z,99990.10
2019-04-22T16:43:00.772Z,99979.23
2019-04-22T16:45:31.634Z,99988.74
2019-04-22T16:48:04.170Z,99984.95
2019-04-22T16:50:42.822Z,99991.47
2019-04-22T16:53:13.769Z,99980.58
2019-04-22T16:55:44.709Z,99978.95
2019-04-22T16:58:19.054Z,99986.33
2019-04-22T17:00:50.689Z,99992.55
2019-04-22T17:03:40.962Z,99978.64
2019-04-22T17:06:17.485Z,99991.16
2019-04-22T17:08:48.783Z,99990.83
2019-04-22T17:11:20.241Z,99973.14
2019-04-22T17:13:52.911Z,99985.81
2019-04-22T17:16:26.226Z,99980.30
2019-04-22T17:19:00.582Z,99958.69
2019-04-22T17:21:37.842Z,99983.67
2019-04-22T17:24:09.845Z,99980.94
2019-04-22T17:26:42.379Z,99981.47
2019-04-22T17:29:14.491Z,99976.44
2019-04-22T17:31:50.945Z,99966.50
2019-04-22T17:34:18.682Z,99981.48
2019-04-22T17:36:51.010Z,99976.55
2019-04-22T17:39:31.596Z,99980.04
2019-04-22T17:42:15.731Z,99974.84
2019-04-22T17:45:01.123Z,99973.58
2019-04-22T17:47:36.470Z,99965.16
2019-04-22T17:50:21.492Z,99969.98
2019-04-22T17:53:03.569Z,99952.99
2019-04-22T17:55:34.431Z,99959.89
2019-04-22T17:58:05.031Z,99969.24
2019-04-22T18:00:30.410Z,99963.11
2019-04-22T18:03:00.477Z,99963.60
2019-04-22T18:05:32.035Z,99968.99
2019-04-22T18:08:17.019Z,99963.70
2019-04-22T18:10:49.204Z,99970.11
2019-04-22T18:13:25.121Z,99959.16
2019-04-22T18:16:00.524Z,99969.02
2019-04-22T18:18:33.674Z,99962.64
2019-04-22T18:20:57.448Z,99976.94
2019-04-22T18:23:19.843Z,99981.48
2019-04-22T18:26:05.114Z,99979.67
2019-04-22T18:28:45.328Z,99985.22
2019-04-22T18:31:06.635Z,99979.73
2019-04-22T18:33:46.090Z,99985.02
2019-04-22T18:36:14.076Z,99987.09
2019-04-22T18:38:58.386Z,99973.56
2019-04-22T18:41:17.885Z,99991.27
2019-04-22T18:43:59.011Z,99989.19
2019-04-22T18:46:31.535Z,99997.30
2019-04-22T18:49:00.534Z,99998.94
2019-04-22T18:51:46.862Z,100001.97
2019-04-22T18:54:36.825Z,99994.51
2019-04-22T18:57:12.263Z,99987.39
2019-04-22T18:59:31.227Z,99997.12
2019-04-22T19:02:03.370Z,100007.52
2019-04-22T19:04:41.036Z,100001.08
2019-04-22T19:07:32.938Z,99981.93
2019-04-22T19:10:04.502Z,99998.65
2019-04-22T19:12:38.337Z,100009.30
2019-04-22T19:15:04.117Z,100003.06
2019-04-22T19:17:52.958Z,100002.83
2019-04-22T19:20:16.986Z,100013.01
2019-04-22T19:22:43.782Z,100018.71
2019-04-22T19:25:12.360Z,100016.86
2019-04-22T19:27:48.839Z,100019.45
2019-04-22T19:30:27.457Z,100032.00
2019-04-22T19:33:00.992Z,100018.16
2019-04-22T19:35:24.251Z,100026.20
2019-04-22T19:37:57.579Z,100022.16
2019-04-22T19:40:55.008Z,100023.10
2019-04-22T19:43:15.423Z,100010.91
2019-04-22T19:45:48.942Z,100020.80
2019-04-22T19:48:32.950Z,100021.17
2019-04-22T19:51:05.887Z,100019.93
2019-04-22T19:53:30.742Z,100023.58
2019-04-22T19:55:53.806Z,100019.97
2019-04-22T19:58:32.671Z,100012.63
2019-04-22T20:01:31.762Z,100011.38
2019-04-22T20:04:21.854Z,100018.51
2019-04-22T20:06:53.515Z,100021.14
2019-04-22T20:09:29.851Z,100016.27
2019-04-22T20:12:21.840Z,100028.65
2019-04-22T20:14:57.619Z,100015.34
2019-04-22T20:17:31.671Z,100012.52
2019-04-22T20:20:04.267Z,100007.53
2019-04-22T20:22:32.777Z,100013.02
2019-04-22T20:24:53.822Z,100016.84
2019-04-22T20:27:43.808Z,100013.70
2019-04-22T20:30:13.236Z,100004.97
2019-04-22T20:32:47.389Z,100021.06
2019-04-22T20:35:27.786Z,100022.63
2019-04-22T20:37:58.304Z,100021.20
2019-04-22T20:40:31.288Z,100017.27
2019-04-22T20:43:13.147Z,100016.20
2019-04-22T20:45:39.995Z,100019.19
2019-04-22T20:47:57.383Z,100016.06
2019-04-22T20:50:51.619Z,100008.75
2019-04-22T20:53:25.479Z,100010.83
2019-04-22T20:55:57.077Z,99996.72
2019-04-22T20:58:28.312Z,100005.30
2019-04-22T21:00:53.131Z,100012.02
2019-04-22T21:03:20.962Z,100005.07
2019-04-22T21:05:55.799Z,100007.67
2019-04-22T21:08:36.592Z,100009.91
2019-04-22T21:11:04.307Z,100013.52
2019-04-22T21:13:41.105Z,100011.94
2019-04-22T21:16:31.848Z,100003.25
2019-04-22T21:18:58.193Z,99998.77
2019-04-22T21:21:31.630Z,99998.96
2019-04-22T21:23:57.252Z,100002.84
2019-04-22T21:26:33.593Z,100000.49
2019-04-22T21:29:09.983Z,99998.95
2019-04-22T21:31:50.249Z,99996.78
2019-04-22T21:34:18.977Z,99990.52
2019-04-22T21:36:58.127Z,99990.78
2019-04-22T21:39:29.280Z,100000.23
2019-04-22T21:41:58.734Z,100000.81
2019-04-22T21:44:33.914Z,99986.00
2019-04-22T21:47:17.754Z,99981.38
2019-04-22T21:49:52.142Z,99985.33
2019-04-22T21:52:21.464Z,99977.60
2019-04-22T21:54:57.157Z,99975.55
2019-04-22T21:57:32.777Z,99981.38
2019-04-22T22:00:06.495Z,99969.92
2019-04-22T22:02:50.716Z,99963.58
2019-04-22T22:05:08.696Z,99961.70
2019-04-22T22:07:28.845Z,99969.19
2019-04-22T22:10:45.425Z,99970.74
2019-04-22T22:13:15.604Z,99970.48
2019-04-22T22:15:53.817Z,99973.94
2019-04-22T22:18:21.471Z,99972.17
2019-04-22T22:23:38.971Z,99958.61
2019-04-22T22:25:59.615Z,99953.16
2019-04-22T22:28:51.324Z,99955.27
2019-04-22T22:31:15.411Z,99956.31
2019-04-22T22:33:43.659Z,99950.86
2019-04-22T22:36:13.392Z,99947.16
2019-04-22T22:38:45.980Z,99943.36
2019-04-22T22:41:00.714Z,99944.86
2019-04-22T22:43:35.912Z,99945.17
2019-04-22T22:46:20.337Z,99949.41
2019-04-22T22:49:00.292Z,99950.14
2019-04-22T22:51:42.508Z,99945.29
2019-04-22T22:54:09.672Z,99938.29
2019-04-22T22:56:47.536Z,99935.62
2019-04-22T22:59:08.237Z,99936.56
2019-04-22T23:01:45.391Z,99919.57
2019-04-22T23:04:23.762Z,99920.72
2019-04-22T23:06:49.498Z,99924.63
2019-04-22T23:09:19.803Z,99928.76
2019-04-22T23:12:06.663Z,99918.09
2019-04-22T23:14:32.720Z,99915.22
2019-04-22T23:16:49.261Z,99916.66
2019-04-22T23:19:13.778Z,99913.75
2019-04-22T23:21:50.276Z,99914.89
2019-04-22T23:25:17.782Z,99910.98
2019-04-22T23:28:01.516Z,99896.66
2019-04-22T23:30:44.582Z,99896.89
2019-04-22T23:33:26.461Z,99898.94
2019-04-22T23:36:13.675Z,99887.02
2019-04-22T23:38:56.652Z,99882.27
2019-04-22T23:44:13.515Z,99883.53
2019-04-22T23:46:42.203Z,99882.78
2019-04-22T23:49:18.005Z,99876.73
2019-04-22T23:52:00.762Z,99874.86
2019-04-22T23:54:35.766Z,99871.67
2019-04-22T23:56:57.017Z,99860.37
2019-04-22T23:59:49.795Z,99853.56
